createdAt,value
2022-11-19T00:00:35.547Z,964.76
2022-11-19T00:01:35.530Z,964.73
2022-11-19T00:02:35.589Z,964.75
2022-11-19T00:03:35.600Z,964.72
2022-11-19T00:04:35.483Z,964.74
2022-11-19T00:05:35.472Z,964.73
2022-11-19T00:06:35.453Z,964.74
2022-11-19T00:07:35.573Z,964.73
2022-11-19T00:08:35.424Z,964.74
2022-11-19T00:09:35.414Z,964.70
2022-11-19T00:10:35.395Z,964.71
2022-11-19T00:11:35.384Z,964.69
2022-11-19T00:12:35.367Z,964.68
2022-11-19T00:13:35.354Z,964.70
2022-11-19T00:14:35.337Z,964.70
2022-11-19T00:15:35.325Z,964.66
2022-11-19T00:16:35.307Z,964.63
2022-11-19T00:17:35.296Z,964.65
2022-11-19T00:19:35.263Z,964.61
2022-11-19T00:20:35.264Z,964.62
2022-11-19T00:21:35.287Z,964.60
2022-11-19T00:22:35.221Z,964.58
2022-11-19T00:23:35.252Z,964.59
2022-11-19T00:24:35.191Z,964.56
2022-11-19T00:25:35.180Z,964.55
2022-11-19T00:26:35.160Z,964.54
2022-11-19T00:27:35.152Z,964.57
2022-11-19T00:28:35.131Z,964.53
2022-11-19T00:29:35.126Z,964.57
2022-11-19T00:30:47.937Z,964.54
2022-11-19T00:31:35.185Z,964.57
2022-11-19T00:32:35.075Z,964.57
2022-11-19T00:33:35.061Z,964.61
2022-11-19T00:34:35.041Z,964.63
2022-11-19T00:35:35.030Z,964.61
2022-11-19T00:36:35.027Z,964.64
2022-11-19T00:37:35.002Z,964.67
2022-11-19T00:38:34.986Z,964.61
2022-11-19T00:39:35.014Z,964.64
2022-11-19T00:40:34.954Z,964.68
2022-11-19T00:41:34.944Z,964.67
2022-11-19T00:42:34.928Z,964.63
2022-11-19T00:43:34.912Z,964.65
2022-11-19T00:44:37.403Z,964.64
2022-11-19T00:45:34.898Z,964.61
2022-11-19T00:46:34.864Z,964.66
2022-11-19T00:47:34.854Z,964.69
2022-11-19T00:48:34.834Z,964.68
2022-11-19T00:49:34.825Z,964.66
2022-11-19T00:50:34.905Z,964.66
2022-11-19T00:51:34.794Z,964.65
2022-11-19T00:52:34.776Z,964.63
2022-11-19T00:53:34.765Z,964.64
2022-11-19T00:54:34.746Z,964.69
2022-11-19T00:55:34.751Z,964.68
2022-11-19T00:56:34.717Z,964.66
2022-11-19T00:57:34.705Z,964.68
2022-11-19T00:58:34.690Z,964.65
2022-11-19T00:59:34.676Z,964.69
2022-11-19T01:00:34.659Z,964.73
2022-11-19T01:01:34.715Z,964.71
2022-11-19T01:02:34.627Z,964.69
2022-11-19T01:03:34.618Z,964.68
2022-11-19T01:04:34.601Z,964.71
2022-11-19T01:05:34.588Z,964.74
2022-11-19T01:06:34.568Z,964.74
2022-11-19T01:07:34.661Z,964.72
2022-11-19T01:08:34.543Z,964.73
2022-11-19T01:09:34.528Z,964.75
2022-11-19T01:10:34.509Z,964.75
2022-11-19T01:11:34.537Z,964.78
2022-11-19T01:12:34.479Z,964.84
2022-11-19T01:13:34.570Z,964.82
2022-11-19T01:14:34.500Z,964.85
2022-11-19T01:15:34.456Z,964.85
2022-11-19T01:16:34.418Z,964.85
2022-11-19T01:17:34.410Z,964.87
2022-11-19T01:18:34.392Z,964.89
2022-11-19T01:19:34.381Z,964.87
2022-11-19T01:20:34.412Z,964.86
2022-11-19T01:21:34.361Z,964.89
2022-11-19T01:22:34.332Z,964.89
2022-11-19T01:23:34.340Z,964.91
2022-11-19T01:24:34.303Z,964.94
2022-11-19T01:25:34.290Z,964.95
2022-11-19T01:26:34.274Z,964.94
2022-11-19T01:27:34.277Z,964.99
2022-11-19T01:28:34.241Z,964.99
2022-11-19T01:29:34.230Z,965.01
2022-11-19T01:30:34.217Z,965.06
2022-11-19T01:31:34.201Z,965.05
2022-11-19T01:32:34.182Z,965.04
2022-11-19T01:33:34.172Z,965.11
2022-11-19T01:34:34.153Z,965.10
2022-11-19T01:35:34.141Z,965.10
2022-11-19T01:36:34.124Z,965.09
2022-11-19T01:37:34.118Z,965.13
2022-11-19T01:38:34.092Z,965.14
2022-11-19T01:39:34.081Z,965.13
2022-11-19T01:40:34.066Z,965.15
2022-11-19T01:41:34.053Z,965.12
2022-11-19T01:42:34.036Z,965.11
2022-11-19T01:43:34.057Z,965.12
2022-11-19T01:44:34.005Z,965.13
2022-11-19T01:45:33.993Z,965.14
2022-11-19T01:46:33.978Z,965.13
2022-11-19T01:47:33.963Z,965.10
2022-11-19T01:48:33.955Z,965.21
2022-11-19T01:49:33.935Z,965.16
2022-11-19T01:50:33.968Z,965.18
2022-11-19T01:51:33.907Z,965.18
2022-11-19T01:52:33.886Z,965.22
2022-11-19T01:53:33.875Z,965.21
2022-11-19T01:54:33.856Z,965.22
2022-11-19T01:55:33.846Z,965.23
2022-11-19T01:56:33.832Z,965.22
2022-11-19T01:57:33.816Z,965.25
2022-11-19T01:58:33.797Z,965.28
2022-11-19T01:59:33.803Z,965.27
2022-11-19T02:00:33.768Z,965.27
2022-11-19T02:01:33.885Z,965.32
2022-11-19T02:02:33.738Z,965.31
2022-11-19T02:03:33.728Z,965.26
2022-11-19T02:04:33.721Z,965.28
2022-11-19T02:05:33.698Z,965.29
2022-11-19T02:06:33.679Z,965.32
2022-11-19T02:07:33.755Z,965.34
2022-11-19T02:08:33.651Z,965.31
2022-11-19T02:09:33.651Z,965.29
2022-11-19T02:10:33.724Z,965.31
2022-11-19T02:11:33.619Z,965.34
2022-11-19T02:12:33.592Z,965.34
2022-11-19T02:13:33.580Z,965.31
2022-11-19T02:14:33.577Z,965.30
2022-11-19T02:15:33.573Z,965.32
2022-11-19T02:16:33.532Z,965.30
2022-11-19T02:17:33.522Z,965.27
2022-11-19T02:18:33.503Z,965.25
2022-11-19T02:19:33.493Z,965.28
2022-11-19T02:20:33.478Z,965.26
2022-11-19T02:21:33.465Z,965.29
2022-11-19T02:22:33.443Z,965.25
2022-11-19T02:23:33.432Z,965.28
2022-11-19T02:24:33.415Z,965.26
2022-11-19T02:25:33.405Z,965.25
2022-11-19T02:26:33.385Z,965.21
2022-11-19T02:27:33.374Z,965.23
2022-11-19T02:28:33.355Z,965.24
2022-11-19T02:29:33.345Z,965.17
2022-11-19T02:30:33.325Z,965.24
2022-11-19T02:31:33.374Z,965.25
2022-11-19T02:32:33.295Z,965.21
2022-11-19T02:33:33.285Z,965.22
2022-11-19T02:34:33.268Z,965.24
2022-11-19T02:35:33.260Z,965.26
2022-11-19T02:36:33.236Z,965.23
2022-11-19T02:37:33.225Z,965.20
2022-11-19T02:38:33.205Z,965.21
2022-11-19T02:39:33.194Z,965.24
2022-11-19T02:40:33.176Z,965.22
2022-11-19T02:41:33.175Z,965.19
2022-11-19T02:42:33.151Z,965.24
2022-11-19T02:43:33.134Z,965.24
2022-11-19T02:44:33.116Z,965.25
2022-11-19T02:45:33.105Z,965.23
2022-11-19T02:46:33.087Z,965.27
2022-11-19T02:47:33.098Z,965.24
2022-11-19T02:48:33.058Z,965.24
2022-11-19T02:49:33.044Z,965.30
2022-11-19T02:50:33.027Z,965.30
2022-11-19T02:51:33.054Z,965.33
2022-11-19T02:52:32.998Z,965.32
2022-11-19T02:53:32.986Z,965.31
2022-11-19T02:54:32.966Z,965.32
2022-11-19T02:55:32.955Z,965.32
2022-11-19T02:56:32.937Z,965.29
2022-11-19T02:57:33.026Z,965.31
2022-11-19T02:58:32.907Z,965.29
2022-11-19T02:59:32.895Z,965.29
2022-11-19T03:00:32.878Z,965.24
2022-11-19T03:01:33.036Z,965.29
2022-11-19T03:02:32.846Z,965.23
2022-11-19T03:03:32.857Z,965.24
2022-11-19T03:04:32.975Z,965.31
2022-11-19T03:05:32.806Z,965.29
2022-11-19T03:06:32.842Z,965.24
2022-11-19T03:07:32.841Z,965.29
2022-11-19T03:08:32.959Z,965.27
2022-11-19T03:09:32.751Z,965.30
2022-11-19T03:10:32.732Z,965.29
2022-11-19T03:11:32.842Z,965.25
2022-11-19T03:12:32.699Z,965.28
2022-11-19T03:13:32.686Z,965.31
2022-11-19T03:14:32.667Z,965.31
2022-11-19T03:15:32.656Z,965.30
2022-11-19T03:16:32.654Z,965.29
2022-11-19T03:17:32.627Z,965.29
2022-11-19T03:18:32.610Z,965.30
2022-11-19T03:19:32.618Z,965.28
2022-11-19T03:20:32.588Z,965.29
2022-11-19T03:21:32.595Z,965.27
2022-11-19T03:22:32.552Z,965.25
2022-11-19T03:23:32.540Z,965.24
2022-11-19T03:24:32.519Z,965.27
2022-11-19T03:25:32.511Z,965.24
2022-11-19T03:26:32.611Z,965.21
2022-11-19T03:27:32.476Z,965.23
2022-11-19T03:28:32.459Z,965.23
2022-11-19T03:29:32.450Z,965.25
2022-11-19T03:30:32.432Z,965.26
2022-11-19T03:31:32.484Z,965.25
2022-11-19T03:32:32.398Z,965.28
2022-11-19T03:33:32.391Z,965.27
2022-11-19T03:34:32.368Z,965.28
2022-11-19T03:35:32.385Z,965.25
2022-11-19T03:36:32.383Z,965.29
2022-11-19T03:37:32.329Z,965.31
2022-11-19T03:38:32.309Z,965.31
2022-11-19T03:39:32.298Z,965.28
2022-11-19T03:40:32.279Z,965.29
2022-11-19T03:41:32.268Z,965.29
2022-11-19T03:42:32.249Z,965.29
2022-11-19T03:43:32.236Z,965.27
2022-11-19T03:44:32.221Z,965.30
2022-11-19T03:45:32.223Z,965.28
2022-11-19T03:46:32.189Z,965.27
2022-11-19T03:47:32.178Z,965.26
2022-11-19T03:48:32.159Z,965.24
2022-11-19T03:49:32.147Z,965.24
2022-11-19T03:50:32.178Z,965.23
2022-11-19T03:51:32.183Z,965.24
2022-11-19T03:52:32.099Z,965.23
2022-11-19T03:53:32.087Z,965.27
2022-11-19T03:54:32.068Z,965.28
2022-11-19T03:55:32.058Z,965.25
2022-11-19T03:56:32.114Z,965.25
2022-11-19T03:57:32.027Z,965.25
2022-11-19T03:58:32.013Z,965.27
2022-11-19T03:59:31.999Z,965.25
2022-11-19T04:00:31.981Z,965.23
2022-11-19T04:01:32.067Z,965.23
2022-11-19T04:02:31.949Z,965.24
2022-11-19T04:03:31.938Z,965.25
2022-11-19T04:04:31.920Z,965.20
2022-11-19T04:05:31.908Z,965.22
2022-11-19T04:06:31.958Z,965.22
2022-11-19T04:07:32.007Z,965.23
2022-11-19T04:08:31.860Z,965.21
2022-11-19T04:09:31.847Z,965.20
2022-11-19T04:10:31.829Z,965.20
2022-11-19T04:11:31.818Z,965.18
2022-11-19T04:12:31.801Z,965.19
2022-11-19T04:13:31.788Z,965.19
2022-11-19T04:14:31.770Z,965.19
2022-11-19T04:15:31.757Z,965.17
2022-11-19T04:16:31.752Z,965.15
2022-11-19T04:17:31.729Z,965.14
2022-11-19T04:18:31.709Z,965.15
2022-11-19T04:19:31.697Z,965.12
2022-11-19T04:20:31.680Z,965.10
2022-11-19T04:22:31.653Z,965.14
2022-11-19T04:23:31.654Z,965.13
2022-11-19T04:24:31.625Z,965.16
2022-11-19T04:25:31.605Z,965.19
2022-11-19T04:26:31.594Z,965.17
2022-11-19T04:27:31.576Z,965.20
2022-11-19T04:28:31.664Z,965.16
2022-11-19T04:29:31.546Z,965.16
2022-11-19T04:30:31.533Z,965.14
2022-11-19T04:31:31.519Z,965.16
2022-11-19T04:32:31.504Z,965.14
2022-11-19T04:33:31.488Z,965.12
2022-11-19T04:34:31.475Z,965.10
2022-11-19T04:35:31.456Z,965.08
2022-11-19T04:36:31.444Z,965.10
2022-11-19T04:37:31.428Z,965.14
2022-11-19T04:38:31.413Z,965.13
2022-11-19T04:39:31.421Z,965.12
2022-11-19T04:40:31.380Z,965.16
2022-11-19T04:41:31.369Z,965.18
2022-11-19T04:42:31.351Z,965.14
2022-11-19T04:43:31.341Z,965.16
2022-11-19T04:44:31.321Z,965.17
2022-11-19T04:45:31.308Z,965.16
2022-11-19T04:46:31.291Z,965.16
2022-11-19T04:47:31.278Z,965.19
2022-11-19T04:48:31.260Z,965.17
2022-11-19T04:49:31.248Z,965.17
2022-11-19T04:50:31.230Z,965.18
2022-11-19T04:51:31.217Z,965.20
2022-11-19T04:52:32.483Z,965.18
2022-11-19T04:53:31.188Z,965.21
2022-11-19T04:54:31.169Z,965.21
2022-11-19T04:55:31.180Z,965.19
2022-11-19T04:56:31.143Z,965.23
2022-11-19T04:57:31.178Z,965.20
2022-11-19T04:58:31.108Z,965.23
2022-11-19T04:59:31.097Z,965.26
2022-11-19T05:00:31.078Z,965.22
2022-11-19T05:01:31.147Z,965.23
2022-11-19T05:02:31.046Z,965.24
2022-11-19T05:03:31.036Z,965.27
2022-11-19T05:04:31.030Z,965.25
2022-11-19T05:05:31.006Z,965.25
2022-11-19T05:06:30.991Z,965.29
2022-11-19T05:07:31.110Z,965.27
2022-11-19T05:08:30.956Z,965.30
2022-11-19T05:09:30.945Z,965.31
2022-11-19T05:10:30.925Z,965.25
2022-11-19T05:11:30.930Z,965.28
2022-11-19T05:12:30.896Z,965.25
2022-11-19T05:13:30.884Z,965.26
2022-11-19T05:14:30.887Z,965.28
2022-11-19T05:15:30.852Z,965.26
2022-11-19T05:16:30.835Z,965.24
2022-11-19T05:17:30.822Z,965.22
2022-11-19T05:18:30.803Z,965.24
2022-11-19T05:19:30.792Z,965.26
2022-11-19T05:20:30.774Z,965.20
2022-11-19T05:21:30.761Z,965.24
2022-11-19T05:22:30.742Z,965.22
2022-11-19T05:23:30.731Z,965.22
2022-11-19T05:24:30.712Z,965.23
2022-11-19T05:25:30.699Z,965.23
2022-11-19T05:26:30.681Z,965.19
2022-11-19T05:27:30.698Z,965.22
2022-11-19T05:28:38.589Z,965.30
2022-11-19T05:29:30.738Z,965.23
2022-11-19T05:30:30.628Z,965.26
2022-11-19T05:31:30.606Z,965.25
2022-11-19T05:32:30.588Z,965.26
2022-11-19T05:33:33.996Z,965.24
2022-11-19T05:34:30.558Z,965.28
2022-11-19T05:35:30.551Z,965.27
2022-11-19T05:36:30.529Z,965.21
2022-11-19T05:37:30.514Z,965.25
2022-11-19T05:38:30.511Z,965.21
2022-11-19T05:39:30.484Z,965.22
2022-11-19T05:40:30.466Z,965.28
2022-11-19T05:41:30.456Z,965.24
2022-11-19T05:42:30.435Z,965.25
2022-11-19T05:43:30.445Z,965.24
2022-11-19T05:44:30.428Z,965.22
2022-11-19T05:45:30.417Z,965.25
2022-11-19T05:46:30.373Z,965.25
2022-11-19T05:47:30.361Z,965.21
2022-11-19T05:48:30.344Z,965.20
2022-11-19T05:49:30.330Z,965.20
2022-11-19T05:50:30.311Z,965.21
2022-11-19T05:51:30.300Z,965.19
2022-11-19T05:52:30.281Z,965.19
2022-11-19T05:53:30.270Z,965.17
2022-11-19T05:54:30.396Z,965.20
2022-11-19T05:55:30.238Z,965.24
2022-11-19T05:56:30.220Z,965.23
2022-11-19T05:57:30.209Z,965.27
2022-11-19T05:58:30.191Z,965.29
2022-11-19T05:59:30.195Z,965.32
2022-11-19T06:00:30.158Z,965.33
2022-11-19T06:01:30.164Z,965.35
2022-11-19T06:02:30.174Z,965.38
2022-11-19T06:03:30.115Z,965.38
2022-11-19T06:04:30.096Z,965.38
2022-11-19T06:05:30.090Z,965.38
2022-11-19T06:06:30.065Z,965.41
2022-11-19T06:07:30.206Z,965.39
2022-11-19T06:08:30.040Z,965.41
2022-11-19T06:09:30.026Z,965.43
2022-11-19T06:10:30.105Z,965.41
2022-11-19T06:11:29.991Z,965.43
2022-11-19T06:12:29.972Z,965.43
2022-11-19T06:13:29.963Z,965.46
2022-11-19T06:14:29.944Z,965.44
2022-11-19T06:15:29.949Z,965.43
2022-11-19T06:16:29.913Z,965.48
2022-11-19T06:17:29.900Z,965.48
2022-11-19T06:18:29.880Z,965.49
2022-11-19T06:19:29.869Z,965.52
2022-11-19T06:20:29.853Z,965.52
2022-11-19T06:21:29.839Z,965.52
2022-11-19T06:22:29.820Z,965.55
2022-11-19T06:23:29.809Z,965.57
2022-11-19T06:24:29.789Z,965.57
2022-11-19T06:25:29.778Z,965.59
2022-11-19T06:26:29.758Z,965.63
2022-11-19T06:27:29.747Z,965.61
2022-11-19T06:28:29.728Z,965.58
2022-11-19T06:29:29.717Z,965.57
2022-11-19T06:30:29.704Z,965.59
2022-11-19T06:31:29.704Z,965.58
2022-11-19T06:32:29.667Z,965.59
2022-11-19T06:33:29.754Z,965.62
2022-11-19T06:34:29.641Z,965.63
2022-11-19T06:35:29.632Z,965.63
2022-11-19T06:36:35.966Z,965.68
2022-11-19T06:37:29.593Z,965.72
2022-11-19T06:38:29.574Z,965.72
2022-11-19T06:39:29.561Z,965.76
2022-11-19T06:40:29.544Z,965.76
2022-11-19T06:41:29.533Z,965.80
2022-11-19T06:42:29.518Z,965.79
2022-11-19T06:43:29.501Z,965.85
2022-11-19T06:44:29.487Z,965.83
2022-11-19T06:45:29.471Z,965.85
2022-11-19T06:46:29.451Z,965.83
2022-11-19T06:47:29.459Z,965.85
2022-11-19T06:48:29.426Z,965.89
2022-11-19T06:49:29.413Z,965.90
2022-11-19T06:50:29.390Z,965.86
2022-11-19T06:51:29.379Z,965.86
2022-11-19T06:52:29.363Z,965.88
2022-11-19T06:53:29.349Z,965.89
2022-11-19T06:54:29.330Z,965.92
2022-11-19T06:55:29.319Z,965.92
2022-11-19T06:56:29.300Z,965.93
2022-11-19T06:57:29.288Z,965.95
2022-11-19T06:58:29.270Z,965.96
2022-11-19T06:59:29.256Z,966.00
2022-11-19T07:00:29.237Z,966.04
2022-11-19T07:01:29.260Z,966.07
2022-11-19T07:02:29.206Z,966.09
2022-11-19T07:03:29.342Z,966.12
2022-11-19T07:04:29.179Z,966.11
2022-11-19T07:05:29.165Z,966.16
2022-11-19T07:06:29.146Z,966.13
2022-11-19T07:07:29.206Z,966.19
2022-11-19T07:08:29.119Z,966.20
2022-11-19T07:09:29.104Z,966.22
2022-11-19T07:10:29.136Z,966.21
2022-11-19T07:11:29.072Z,966.24
2022-11-19T07:12:29.055Z,966.22
2022-11-19T07:13:29.042Z,966.23
2022-11-19T07:14:29.024Z,966.23
2022-11-19T07:15:29.013Z,966.25
2022-11-19T07:16:28.993Z,966.25
2022-11-19T07:17:29.082Z,966.28
2022-11-19T07:18:28.962Z,966.33
2022-11-19T07:19:28.973Z,966.31
2022-11-19T07:20:29.015Z,966.31
2022-11-19T07:21:28.921Z,966.29
2022-11-19T07:22:28.903Z,966.35
2022-11-19T07:23:28.905Z,966.37
2022-11-19T07:24:28.872Z,966.40
2022-11-19T07:25:28.870Z,966.37
2022-11-19T07:26:28.842Z,966.43
2022-11-19T07:27:28.828Z,966.42
2022-11-19T07:28:28.811Z,966.41
2022-11-19T07:29:28.799Z,966.44
2022-11-19T07:30:28.824Z,966.41
2022-11-19T07:31:28.769Z,966.41
2022-11-19T07:32:28.750Z,966.39
2022-11-19T07:33:28.739Z,966.41
2022-11-19T07:34:28.720Z,966.34
2022-11-19T07:35:28.773Z,966.39
2022-11-19T07:36:28.894Z,966.40
2022-11-19T07:37:28.677Z,966.38
2022-11-19T07:38:32.762Z,966.36
2022-11-19T07:39:28.647Z,966.37
2022-11-19T07:40:28.741Z,966.37
2022-11-19T07:41:28.718Z,966.38
2022-11-19T07:42:28.615Z,966.38
2022-11-19T07:43:28.589Z,966.37
2022-11-19T07:44:28.570Z,966.42
2022-11-19T07:45:28.559Z,966.45
2022-11-19T07:46:28.539Z,966.43
2022-11-19T07:47:28.527Z,966.45
2022-11-19T07:48:28.510Z,966.45
2022-11-19T07:49:28.498Z,966.46
2022-11-19T07:50:28.480Z,966.41
2022-11-19T07:51:28.508Z,966.45
2022-11-19T07:52:28.450Z,966.44
2022-11-19T07:53:28.439Z,966.47
2022-11-19T07:54:28.420Z,966.47
2022-11-19T07:55:28.409Z,966.49
2022-11-19T07:56:28.391Z,966.54
2022-11-19T07:57:30.397Z,966.53
2022-11-19T07:58:28.360Z,966.54
2022-11-19T07:59:28.350Z,966.57
2022-11-19T08:00:28.343Z,966.62
2022-11-19T08:01:28.390Z,966.62
2022-11-19T08:02:28.308Z,966.62
2022-11-19T08:03:28.290Z,966.69
2022-11-19T08:04:28.274Z,966.64
2022-11-19T08:05:28.261Z,966.62
2022-11-19T08:06:28.246Z,966.64
2022-11-19T08:07:28.317Z,966.64
2022-11-19T08:08:28.217Z,966.62
2022-11-19T08:09:28.201Z,966.61
2022-11-19T08:10:31.806Z,966.63
2022-11-19T08:11:28.171Z,966.60
2022-11-19T08:12:28.154Z,966.64
2022-11-19T08:13:28.200Z,966.64
2022-11-19T08:14:28.124Z,966.66
2022-11-19T08:15:28.114Z,966.69
2022-11-19T08:16:28.094Z,966.70
2022-11-19T08:17:28.085Z,966.68
2022-11-19T08:18:31.136Z,966.71
2022-11-19T08:19:28.052Z,966.71
2022-11-19T08:20:28.035Z,966.72
2022-11-19T08:21:28.023Z,966.70
2022-11-19T08:22:28.005Z,966.74
2022-11-19T08:23:28.010Z,966.70
2022-11-19T08:24:27.977Z,966.71
2022-11-19T08:25:27.965Z,966.69
2022-11-19T08:26:27.945Z,966.69
2022-11-19T08:27:27.934Z,966.73
2022-11-19T08:28:27.918Z,966.72
2022-11-19T08:29:27.906Z,966.74
2022-11-19T08:30:27.886Z,966.72
2022-11-19T08:31:27.891Z,966.72
2022-11-19T08:32:27.858Z,966.74
2022-11-19T08:33:27.846Z,966.76
2022-11-19T08:34:27.828Z,966.73
2022-11-19T08:35:27.817Z,966.74
2022-11-19T08:36:27.799Z,966.72
2022-11-19T08:37:27.789Z,966.77
2022-11-19T08:38:27.774Z,966.72
2022-11-19T08:39:27.780Z,966.75
2022-11-19T08:40:27.941Z,966.75
2022-11-19T08:41:27.730Z,966.75
2022-11-19T08:42:27.724Z,966.78
2022-11-19T08:43:27.702Z,966.75
2022-11-19T08:44:27.680Z,966.78
2022-11-19T08:45:27.669Z,966.78
2022-11-19T08:46:27.651Z,966.79
2022-11-19T08:47:27.639Z,966.81
2022-11-19T08:48:27.623Z,966.83
2022-11-19T08:49:27.611Z,966.80
2022-11-19T08:50:27.592Z,966.83
2022-11-19T08:51:27.580Z,966.84
2022-11-19T08:52:27.562Z,966.82
2022-11-19T08:53:27.548Z,966.84
2022-11-19T08:54:27.544Z,966.85
2022-11-19T08:55:27.545Z,966.80
2022-11-19T08:56:27.505Z,966.86
2022-11-19T08:57:27.490Z,966.80
2022-11-19T08:58:27.481Z,966.80
2022-11-19T08:59:27.461Z,966.80
2022-11-19T09:00:27.472Z,966.78
2022-11-19T09:01:27.430Z,966.81
2022-11-19T09:02:27.419Z,966.76
2022-11-19T09:03:27.400Z,966.77
2022-11-19T09:04:27.391Z,966.81
2022-11-19T09:05:27.372Z,966.82
2022-11-19T09:06:27.361Z,966.83
2022-11-19T09:07:27.412Z,966.86
2022-11-19T09:08:27.331Z,966.87
2022-11-19T09:09:27.319Z,966.91
2022-11-19T09:10:27.302Z,966.87
2022-11-19T09:11:27.303Z,966.89
2022-11-19T09:12:27.274Z,966.91
2022-11-19T09:13:27.259Z,966.88
2022-11-19T09:14:27.245Z,966.91
2022-11-19T09:15:27.227Z,966.89
2022-11-19T09:16:27.218Z,966.91
2022-11-19T09:17:27.452Z,966.95
2022-11-19T09:18:27.188Z,966.93
2022-11-19T09:19:27.175Z,966.90
2022-11-19T09:20:27.160Z,966.91
2022-11-19T09:21:27.194Z,966.92
2022-11-19T09:22:27.131Z,966.88
2022-11-19T09:23:27.128Z,966.88
2022-11-19T09:24:27.105Z,966.85
2022-11-19T09:25:27.087Z,966.88
2022-11-19T09:26:27.076Z,966.89
2022-11-19T09:27:27.082Z,966.88
2022-11-19T09:28:27.046Z,966.92
2022-11-19T09:29:27.030Z,966.90
2022-11-19T09:30:27.019Z,966.93
2022-11-19T09:31:27.001Z,966.93
2022-11-19T09:32:26.995Z,966.96
2022-11-19T09:33:26.976Z,966.95
2022-11-19T09:34:26.965Z,966.97
2022-11-19T09:35:26.946Z,966.95
2022-11-19T09:36:26.934Z,966.95
2022-11-19T09:37:26.918Z,966.95
2022-11-19T09:38:26.910Z,966.98
2022-11-19T09:39:26.890Z,967.02
2022-11-19T09:40:26.880Z,967.03
2022-11-19T09:41:26.862Z,967.03
2022-11-19T09:42:26.850Z,967.06
2022-11-19T09:43:26.943Z,967.02
2022-11-19T09:44:26.823Z,967.04
2022-11-19T09:45:26.805Z,967.03
2022-11-19T09:46:26.796Z,967.02
2022-11-19T09:47:26.779Z,967.03
2022-11-19T09:48:26.767Z,967.03
2022-11-19T09:49:26.749Z,967.00
2022-11-19T09:50:26.740Z,967.03
2022-11-19T09:51:26.722Z,967.00
2022-11-19T09:52:26.711Z,967.00
2022-11-19T09:53:26.696Z,967.01
2022-11-19T09:54:26.683Z,966.99
2022-11-19T09:55:26.668Z,966.99
2022-11-19T09:56:26.658Z,966.95
2022-11-19T09:57:26.643Z,966.96
2022-11-19T09:58:26.630Z,966.90
2022-11-19T09:59:26.629Z,966.92
2022-11-19T10:00:26.602Z,966.88
2022-11-19T10:01:26.587Z,966.87
2022-11-19T10:02:26.707Z,966.88
2022-11-19T10:03:32.804Z,966.88
2022-11-19T10:04:26.553Z,966.86
2022-11-19T10:05:26.533Z,966.87
2022-11-19T10:06:26.522Z,966.86
2022-11-19T10:07:26.508Z,966.84
2022-11-19T10:08:26.495Z,966.81
2022-11-19T10:09:26.479Z,966.86
2022-11-19T10:10:26.472Z,966.81
2022-11-19T10:11:26.453Z,966.79
2022-11-19T10:12:26.442Z,966.78
2022-11-19T10:13:26.426Z,966.76
2022-11-19T10:14:26.414Z,966.75
2022-11-19T10:15:26.423Z,966.76
2022-11-19T10:16:26.389Z,966.73
2022-11-19T10:17:26.372Z,966.75
2022-11-19T10:18:26.360Z,966.74
2022-11-19T10:19:26.374Z,966.77
2022-11-19T10:20:26.336Z,966.76
2022-11-19T10:21:26.320Z,966.74
2022-11-19T10:22:26.309Z,966.76
2022-11-19T10:23:26.343Z,966.77
2022-11-19T10:24:26.283Z,966.77
2022-11-19T10:25:26.269Z,966.79
2022-11-19T10:26:26.257Z,966.76
2022-11-19T10:27:26.240Z,966.79
2022-11-19T10:28:26.230Z,966.77
2022-11-19T10:29:26.214Z,966.73
2022-11-19T10:30:26.210Z,966.72
2022-11-19T10:31:26.305Z,966.74
2022-11-19T10:32:26.177Z,966.71
2022-11-19T10:33:26.163Z,966.73
2022-11-19T10:34:26.153Z,966.71
2022-11-19T10:35:26.134Z,966.73
2022-11-19T10:36:26.125Z,966.73
2022-11-19T10:37:26.108Z,966.70
2022-11-19T10:38:26.095Z,966.68
2022-11-19T10:39:26.080Z,966.67
2022-11-19T10:40:26.070Z,966.66
2022-11-19T10:41:26.061Z,966.63
2022-11-19T10:42:26.042Z,966.65
2022-11-19T10:43:26.032Z,966.67
2022-11-19T10:44:26.015Z,966.66
2022-11-19T10:45:26.005Z,966.63
2022-11-19T10:46:25.987Z,966.64
2022-11-19T10:47:26.009Z,966.65
2022-11-19T10:48:25.962Z,966.68
2022-11-19T10:49:25.945Z,966.65
2022-11-19T10:50:26.036Z,966.65
2022-11-19T10:51:25.920Z,966.60
2022-11-19T10:52:25.922Z,966.63
2022-11-19T10:53:25.894Z,966.64
2022-11-19T10:54:25.884Z,966.60
2022-11-19T10:55:25.866Z,966.60
2022-11-19T10:56:25.853Z,966.56
2022-11-19T10:57:25.838Z,966.54
2022-11-19T10:58:25.828Z,966.56
2022-11-19T10:59:25.860Z,966.56
2022-11-19T11:00:25.901Z,966.58
2022-11-19T11:01:25.824Z,966.54
2022-11-19T11:02:28.161Z,966.54
2022-11-19T11:03:25.775Z,966.53
2022-11-19T11:05:25.735Z,966.52
2022-11-19T11:06:25.719Z,966.48
2022-11-19T11:07:25.767Z,966.52
2022-11-19T11:08:25.694Z,966.54
2022-11-19T11:09:25.684Z,966.52
2022-11-19T11:10:25.668Z,966.52
2022-11-19T11:11:25.657Z,966.52
2022-11-19T11:12:25.643Z,966.54
2022-11-19T11:13:25.648Z,966.53
2022-11-19T11:14:25.615Z,966.52
2022-11-19T11:15:25.606Z,966.50
2022-11-19T11:16:25.590Z,966.49
2022-11-19T11:17:25.580Z,966.51
2022-11-19T11:18:25.567Z,966.49
2022-11-19T11:19:25.580Z,966.50
2022-11-19T11:20:25.538Z,966.43
2022-11-19T11:21:25.531Z,966.42
2022-11-19T11:22:25.516Z,966.42
2022-11-19T11:23:25.515Z,966.40
2022-11-19T11:24:25.488Z,966.38
2022-11-19T11:25:25.531Z,966.42
2022-11-19T11:26:25.466Z,966.42
2022-11-19T11:27:25.458Z,966.38
2022-11-19T11:28:25.447Z,966.32
2022-11-19T11:29:25.430Z,966.30
2022-11-19T11:30:25.411Z,966.30
2022-11-19T11:31:25.404Z,966.29
2022-11-19T11:32:25.388Z,966.30
2022-11-19T11:33:25.379Z,966.32
2022-11-19T11:34:25.363Z,966.32
2022-11-19T11:35:25.372Z,966.28
2022-11-19T11:36:25.339Z,966.31
2022-11-19T11:37:25.329Z,966.28
2022-11-19T11:38:25.315Z,966.28
2022-11-19T11:39:25.305Z,966.28
2022-11-19T11:40:25.288Z,966.28
2022-11-19T11:42:25.265Z,966.24
2022-11-19T11:43:25.272Z,966.23
2022-11-19T11:44:25.239Z,966.20
2022-11-19T11:45:25.231Z,966.22
2022-11-19T11:46:25.214Z,966.23
2022-11-19T11:47:25.206Z,966.19
2022-11-19T11:48:25.191Z,966.15
2022-11-19T11:49:25.500Z,966.14
2022-11-19T11:50:25.271Z,966.12
2022-11-19T11:51:25.182Z,966.14
2022-11-19T11:52:25.145Z,966.13
2022-11-19T11:53:25.135Z,966.08
2022-11-19T11:54:25.117Z,966.08
2022-11-19T11:55:25.113Z,966.11
2022-11-19T11:56:25.097Z,966.14
2022-11-19T11:57:25.100Z,966.11
2022-11-19T11:58:25.079Z,966.11
2022-11-19T11:59:25.062Z,966.11
2022-11-19T12:00:25.054Z,966.09
2022-11-19T12:01:25.140Z,966.11
2022-11-19T12:02:25.103Z,966.08
2022-11-19T12:03:25.015Z,966.06
2022-11-19T12:04:25.004Z,966.03
2022-11-19T12:05:24.994Z,966.07
2022-11-19T12:06:24.977Z,966.07
2022-11-19T12:07:25.039Z,966.13
2022-11-19T12:08:27.052Z,966.11
2022-11-19T12:09:24.955Z,966.10
2022-11-19T12:10:24.931Z,966.10
2022-11-19T12:11:24.922Z,966.18
2022-11-19T12:12:24.907Z,966.16
2022-11-19T12:13:24.909Z,966.12
2022-11-19T12:14:24.886Z,966.11
2022-11-19T12:15:24.877Z,966.13
2022-11-19T12:16:24.862Z,966.06
2022-11-19T12:17:24.852Z,966.07
2022-11-19T12:18:24.840Z,966.09
2022-11-19T12:19:24.828Z,966.10
2022-11-19T12:20:24.816Z,966.13
2022-11-19T12:21:24.806Z,966.08
2022-11-19T12:22:24.791Z,966.11
2022-11-19T12:23:24.808Z,966.07
2022-11-19T12:24:24.771Z,966.09
2022-11-19T12:25:24.760Z,966.09
2022-11-19T12:26:24.795Z,966.09
2022-11-19T12:27:24.738Z,966.10
2022-11-19T12:28:24.722Z,966.11
2022-11-19T12:29:24.714Z,966.15
2022-11-19T12:30:24.698Z,966.14
2022-11-19T12:31:29.564Z,966.15
2022-11-19T12:32:24.678Z,966.16